sensor_id;sensor_type;location;lat;lon;timestamp;P1;durP1;ratioP1;P2;durP2;ratioP2
47531;SDS011;33273;52.254;7.988;2022-12-18T00:00:58;55.13;;;28.48;;
47531;SDS011;33273;52.254;7.988;2022-12-18T00:03:24;60.42;;;29.35;;
47531;SDS011;33273;52.254;7.988;2022-12-18T00:08:17;64.07;;;28.15;;
47531;SDS011;33273;52.254;7.988;2022-12-18T00:10:44;53.28;;;27.25;;
47531;SDS011;33273;52.254;7.988;2022-12-18T00:13:11;53.47;;;27.92;;
47531;SDS011;33273;52.254;7.988;2022-12-18T00:15:37;50.65;;;27.58;;
47531;SDS011;33273;52.254;7.988;2022-12-18T00:18:08;63.50;;;29.80;;
47531;SDS011;33273;52.254;7.988;2022-12-18T00:20:35;47.50;;;25.63;;
47531;SDS011;33273;52.254;7.988;2022-12-18T00:23:03;58.97;;;26.40;;
47531;SDS011;33273;52.254;7.988;2022-12-18T00:25:32;58.42;;;27.85;;
47531;SDS011;33273;52.254;7.988;2022-12-18T00:27:59;52.42;;;25.42;;
47531;SDS011;33273;52.254;7.988;2022-12-18T00:30:24;54.03;;;27.23;;
47531;SDS011;33273;52.254;7.988;2022-12-18T00:32:50;46.42;;;25.80;;
47531;SDS011;33273;52.254;7.988;2022-12-18T00:35:16;53.45;;;25.35;;
47531;SDS011;33273;52.254;7.988;2022-12-18T00:40:10;39.88;;;22.25;;
47531;SDS011;33273;52.254;7.988;2022-12-18T00:42:37;46.90;;;24.67;;
47531;SDS011;33273;52.254;7.988;2022-12-18T00:45:22;46.13;;;24.67;;
47531;SDS011;33273;52.254;7.988;2022-12-18T00:47:51;45.08;;;24.90;;
47531;SDS011;33273;52.254;7.988;2022-12-18T00:50:17;51.55;;;25.77;;
47531;SDS011;33273;52.254;7.988;2022-12-18T00:52:44;46.58;;;25.83;;
47531;SDS011;33273;52.254;7.988;2022-12-18T00:55:10;44.88;;;24.77;;
47531;SDS011;33273;52.254;7.988;2022-12-18T00:57:36;51.33;;;26.50;;
47531;SDS011;33273;52.254;7.988;2022-12-18T01:00:04;42.85;;;23.67;;
47531;SDS011;33273;52.254;7.988;2022-12-18T01:02:32;47.25;;;25.15;;
47531;SDS011;33273;52.254;7.988;2022-12-18T01:04:58;49.80;;;27.42;;
47531;SDS011;33273;52.254;7.988;2022-12-18T01:07:24;42.45;;;24.30;;
47531;SDS011;33273;52.254;7.988;2022-12-18T01:09:52;49.28;;;26.42;;
47531;SDS011;33273;52.254;7.988;2022-12-18T01:12:18;41.50;;;24.50;;
47531;SDS011;33273;52.254;7.988;2022-12-18T01:14:44;42.80;;;24.95;;
47531;SDS011;33273;52.254;7.988;2022-12-18T01:17:11;40.42;;;23.70;;
47531;SDS011;33273;52.254;7.988;2022-12-18T01:19:36;45.08;;;25.65;;
47531;SDS011;33273;52.254;7.988;2022-12-18T01:22:02;45.95;;;25.10;;
47531;SDS011;33273;52.254;7.988;2022-12-18T01:24:28;51.50;;;24.50;;
47531;SDS011;33273;52.254;7.988;2022-12-18T01:26:54;54.85;;;26.13;;
47531;SDS011;33273;52.254;7.988;2022-12-18T01:29:25;54.78;;;25.95;;
47531;SDS011;33273;52.254;7.988;2022-12-18T01:31:54;46.83;;;24.50;;
47531;SDS011;33273;52.254;7.988;2022-12-18T01:34:21;50.78;;;27.80;;
47531;SDS011;33273;52.254;7.988;2022-12-18T01:39:14;45.47;;;23.92;;
47531;SDS011;33273;52.254;7.988;2022-12-18T01:41:41;42.20;;;24.15;;
47531;SDS011;33273;52.254;7.988;2022-12-18T01:50:14;41.97;;;22.75;;
47531;SDS011;33273;52.254;7.988;2022-12-18T01:52:58;46.65;;;24.52;;
47531;SDS011;33273;52.254;7.988;2022-12-18T01:55:49;44.28;;;22.33;;
47531;SDS011;33273;52.254;7.988;2022-12-18T01:58:22;42.53;;;22.42;;
47531;SDS011;33273;52.254;7.988;2022-12-18T02:00:54;39.55;;;22.65;;
47531;SDS011;33273;52.254;7.988;2022-12-18T02:03:20;43.25;;;23.65;;
47531;SDS011;33273;52.254;7.988;2022-12-18T02:05:55;41.50;;;21.55;;
47531;SDS011;33273;52.254;7.988;2022-12-18T02:08:43;48.17;;;23.25;;
47531;SDS011;33273;52.254;7.988;2022-12-18T02:11:27;43.38;;;23.95;;
47531;SDS011;33273;52.254;7.988;2022-12-18T02:27:27;38.15;;;20.00;;
47531;SDS011;33273;52.254;7.988;2022-12-18T02:29:55;42.50;;;23.38;;
47531;SDS011;33273;52.254;7.988;2022-12-18T02:32:28;43.42;;;23.38;;
47531;SDS011;33273;52.254;7.988;2022-12-18T02:34:58;41.63;;;23.38;;
47531;SDS011;33273;52.254;7.988;2022-12-18T02:37:27;45.65;;;22.92;;
47531;SDS011;33273;52.254;7.988;2022-12-18T02:39:58;35.72;;;21.60;;
47531;SDS011;33273;52.254;7.988;2022-12-18T02:42:25;36.47;;;21.95;;
47531;SDS011;33273;52.254;7.988;2022-12-18T02:44:53;36.53;;;22.00;;
47531;SDS011;33273;52.254;7.988;2022-12-18T02:47:24;41.78;;;23.67;;
47531;SDS011;33273;52.254;7.988;2022-12-18T02:50:08;46.63;;;23.17;;
47531;SDS011;33273;52.254;7.988;2022-12-18T02:53:00;36.25;;;21.30;;
47531;SDS011;33273;52.254;7.988;2022-12-18T03:00:39;35.03;;;20.25;;
47531;SDS011;33273;52.254;7.988;2022-12-18T03:03:21;39.20;;;22.48;;
47531;SDS011;33273;52.254;7.988;2022-12-18T03:06:13;36.13;;;20.58;;
47531;SDS011;33273;52.254;7.988;2022-12-18T03:08:49;44.28;;;22.45;;
47531;SDS011;33273;52.254;7.988;2022-12-18T03:11:23;33.55;;;20.67;;
47531;SDS011;33273;52.254;7.988;2022-12-18T03:14:22;34.92;;;18.50;;
47531;SDS011;33273;52.254;7.988;2022-12-18T03:16:51;34.38;;;19.92;;
47531;SDS011;33273;52.254;7.988;2022-12-18T03:19:21;36.97;;;21.98;;
47531;SDS011;33273;52.254;7.988;2022-12-18T03:21:52;34.50;;;19.65;;
47531;SDS011;33273;52.254;7.988;2022-12-18T03:24:23;37.53;;;20.55;;
47531;SDS011;33273;52.254;7.988;2022-12-18T03:26:55;32.90;;;19.85;;
47531;SDS011;33273;52.254;7.988;2022-12-18T03:29:35;36.95;;;20.20;;
47531;SDS011;33273;52.254;7.988;2022-12-18T03:32:25;32.33;;;19.52;;
47531;SDS011;33273;52.254;7.988;2022-12-18T03:34:58;32.47;;;20.27;;
47531;SDS011;33273;52.254;7.988;2022-12-18T03:37:31;36.15;;;20.45;;
47531;SDS011;33273;52.254;7.988;2022-12-18T03:39:57;37.20;;;18.80;;
47531;SDS011;33273;52.254;7.988;2022-12-18T03:42:32;32.92;;;20.17;;
47531;SDS011;33273;52.254;7.988;2022-12-18T03:45:46;28.73;;;18.35;;
47531;SDS011;33273;52.254;7.988;2022-12-18T03:48:29;30.92;;;18.52;;
47531;SDS011;33273;52.254;7.988;2022-12-18T03:51:09;29.65;;;17.15;;
47531;SDS011;33273;52.254;7.988;2022-12-18T03:53:42;32.67;;;17.70;;
47531;SDS011;33273;52.254;7.988;2022-12-18T03:56:27;32.92;;;17.75;;
47531;SDS011;33273;52.254;7.988;2022-12-18T03:58:57;32.28;;;17.73;;
47531;SDS011;33273;52.254;7.988;2022-12-18T04:01:29;33.75;;;18.08;;
47531;SDS011;33273;52.254;7.988;2022-12-18T04:03:59;30.90;;;19.08;;
47531;SDS011;33273;52.254;7.988;2022-12-18T04:06:28;30.30;;;18.17;;
47531;SDS011;33273;52.254;7.988;2022-12-18T04:08:56;28.08;;;17.88;;
47531;SDS011;33273;52.254;7.988;2022-12-18T04:11:25;29.48;;;18.33;;
47531;SDS011;33273;52.254;7.988;2022-12-18T04:13:55;30.60;;;17.73;;
47531;SDS011;33273;52.254;7.988;2022-12-18T04:16:25;29.00;;;16.88;;
47531;SDS011;33273;52.254;7.988;2022-12-18T04:18:55;31.65;;;18.02;;
47531;SDS011;33273;52.254;7.988;2022-12-18T04:21:23;28.02;;;17.10;;
47531;SDS011;33273;52.254;7.988;2022-12-18T04:23:49;30.35;;;18.55;;
47531;SDS011;33273;52.254;7.988;2022-12-18T04:26:17;33.10;;;18.83;;
47531;SDS011;33273;52.254;7.988;2022-12-18T04:29:06;30.85;;;17.25;;
47531;SDS011;33273;52.254;7.988;2022-12-18T04:31:32;32.13;;;17.42;;
47531;SDS011;33273;52.254;7.988;2022-12-18T04:33:58;26.75;;;15.90;;
47531;SDS011;33273;52.254;7.988;2022-12-18T04:36:25;27.55;;;15.88;;
47531;SDS011;33273;52.254;7.988;2022-12-18T04:38:51;26.35;;;15.48;;
47531;SDS011;33273;52.254;7.988;2022-12-18T04:41:17;24.13;;;13.93;;
47531;SDS011;33273;52.254;7.988;2022-12-18T04:43:46;25.45;;;14.93;;
47531;SDS011;33273;52.254;7.988;2022-12-18T04:46:13;25.73;;;15.18;;
47531;SDS011;33273;52.254;7.988;2022-12-18T04:48:39;28.90;;;16.13;;
47531;SDS011;33273;52.254;7.988;2022-12-18T04:51:05;29.60;;;16.05;;
47531;SDS011;33273;52.254;7.988;2022-12-18T04:53:31;30.42;;;16.23;;
47531;SDS011;33273;52.254;7.988;2022-12-18T04:56:08;25.42;;;14.02;;
47531;SDS011;33273;52.254;7.988;2022-12-18T04:58:36;30.10;;;16.17;;
47531;SDS011;33273;52.254;7.988;2022-12-18T05:01:04;28.20;;;16.52;;
47531;SDS011;33273;52.254;7.988;2022-12-18T05:03:31;29.58;;;15.52;;
47531;SDS011;33273;52.254;7.988;2022-12-18T05:05:57;28.25;;;15.73;;
47531;SDS011;33273;52.254;7.988;2022-12-18T05:08:23;31.83;;;16.25;;
47531;SDS011;33273;52.254;7.988;2022-12-18T05:10:49;27.52;;;15.13;;
47531;SDS011;33273;52.254;7.988;2022-12-18T05:13:15;27.67;;;16.10;;
47531;SDS011;33273;52.254;7.988;2022-12-18T05:15:41;25.77;;;14.75;;
47531;SDS011;33273;52.254;7.988;2022-12-18T05:18:07;25.83;;;15.60;;
47531;SDS011;33273;52.254;7.988;2022-12-18T05:20:33;26.63;;;14.20;;
47531;SDS011;33273;52.254;7.988;2022-12-18T05:22:59;26.25;;;14.82;;
47531;SDS011;33273;52.254;7.988;2022-12-18T05:25:25;29.35;;;15.27;;
47531;SDS011;33273;52.254;7.988;2022-12-18T05:27:51;23.05;;;15.27;;
47531;SDS011;33273;52.254;7.988;2022-12-18T05:30:17;25.58;;;14.85;;
47531;SDS011;33273;52.254;7.988;2022-12-18T05:32:43;25.98;;;13.88;;
47531;SDS011;33273;52.254;7.988;2022-12-18T05:35:10;26.50;;;14.38;;
47531;SDS011;33273;52.254;7.988;2022-12-18T05:37:36;27.48;;;15.20;;
47531;SDS011;33273;52.254;7.988;2022-12-18T05:40:03;25.70;;;14.05;;
47531;SDS011;33273;52.254;7.988;2022-12-18T05:42:30;26.67;;;15.18;;
47531;SDS011;33273;52.254;7.988;2022-12-18T05:44:56;23.50;;;14.68;;
47531;SDS011;33273;52.254;7.988;2022-12-18T05:47:21;27.95;;;14.93;;
47531;SDS011;33273;52.254;7.988;2022-12-18T05:49:47;22.25;;;12.70;;
47531;SDS011;33273;52.254;7.988;2022-12-18T05:52:13;26.50;;;13.90;;
47531;SDS011;33273;52.254;7.988;2022-12-18T05:54:39;27.17;;;14.80;;
47531;SDS011;33273;52.254;7.988;2022-12-18T05:59:31;22.33;;;13.00;;
47531;SDS011;33273;52.254;7.988;2022-12-18T06:01:57;25.70;;;13.30;;
47531;SDS011;33273;52.254;7.988;2022-12-18T06:04:23;24.20;;;13.80;;
47531;SDS011;33273;52.254;7.988;2022-12-18T06:06:49;24.92;;;14.88;;
47531;SDS011;33273;52.254;7.988;2022-12-18T06:09:15;26.80;;;14.57;;
47531;SDS011;33273;52.254;7.988;2022-12-18T06:11:42;24.55;;;14.65;;
47531;SDS011;33273;52.254;7.988;2022-12-18T06:14:08;22.25;;;13.25;;
47531;SDS011;33273;52.254;7.988;2022-12-18T06:16:35;21.73;;;13.15;;
47531;SDS011;33273;52.254;7.988;2022-12-18T06:19:01;21.25;;;13.57;;
47531;SDS011;33273;52.254;7.988;2022-12-18T06:21:29;21.05;;;13.63;;
47531;SDS011;33273;52.254;7.988;2022-12-18T06:23:56;23.23;;;13.35;;
47531;SDS011;33273;52.254;7.988;2022-12-18T06:26:22;24.38;;;13.88;;
47531;SDS011;33273;52.254;7.988;2022-12-18T06:28:48;21.58;;;13.75;;
47531;SDS011;33273;52.254;7.988;2022-12-18T06:31:14;21.13;;;12.55;;
47531;SDS011;33273;52.254;7.988;2022-12-18T06:33:40;24.75;;;14.10;;
47531;SDS011;33273;52.254;7.988;2022-12-18T06:36:07;22.60;;;13.52;;
47531;SDS011;33273;52.254;7.988;2022-12-18T06:38:38;24.00;;;13.00;;
47531;SDS011;33273;52.254;7.988;2022-12-18T06:41:08;24.92;;;13.50;;
47531;SDS011;33273;52.254;7.988;2022-12-18T06:43:36;21.80;;;12.40;;
47531;SDS011;33273;52.254;7.988;2022-12-18T06:46:02;19.52;;;12.73;;
47531;SDS011;33273;52.254;7.988;2022-12-18T06:48:29;25.20;;;13.30;;
47531;SDS011;33273;52.254;7.988;2022-12-18T06:50:55;25.42;;;13.48;;
47531;SDS011;33273;52.254;7.988;2022-12-18T06:53:21;24.02;;;14.13;;
47531;SDS011;33273;52.254;7.988;2022-12-18T06:55:49;26.20;;;13.82;;
47531;SDS011;33273;52.254;7.988;2022-12-18T06:58:15;24.17;;;13.98;;
47531;SDS011;33273;52.254;7.988;2022-12-18T07:00:41;22.75;;;13.45;;
47531;SDS011;33273;52.254;7.988;2022-12-18T07:03:07;18.38;;;12.38;;
47531;SDS011;33273;52.254;7.988;2022-12-18T07:05:34;23.42;;;13.50;;
47531;SDS011;33273;52.254;7.988;2022-12-18T07:08:04;22.17;;;12.23;;
47531;SDS011;33273;52.254;7.988;2022-12-18T07:10:30;20.88;;;11.80;;
47531;SDS011;33273;52.254;7.988;2022-12-18T07:12:56;19.45;;;12.40;;
47531;SDS011;33273;52.254;7.988;2022-12-18T07:15:22;25.80;;;12.52;;
47531;SDS011;33273;52.254;7.988;2022-12-18T07:17:48;28.00;;;13.80;;
47531;SDS011;33273;52.254;7.988;2022-12-18T07:20:14;22.77;;;12.80;;
47531;SDS011;33273;52.254;7.988;2022-12-18T07:22:39;23.70;;;13.00;;
47531;SDS011;33273;52.254;7.988;2022-12-18T07:25:06;26.38;;;13.25;;
47531;SDS011;33273;52.254;7.988;2022-12-18T07:27:32;24.08;;;12.98;;
47531;SDS011;33273;52.254;7.988;2022-12-18T07:29:58;23.35;;;12.43;;
47531;SDS011;33273;52.254;7.988;2022-12-18T07:32:24;24.27;;;12.40;;
47531;SDS011;33273;52.254;7.988;2022-12-18T07:34:49;23.33;;;12.65;;
47531;SDS011;33273;52.254;7.988;2022-12-18T07:37:15;27.10;;;12.80;;
47531;SDS011;33273;52.254;7.988;2022-12-18T07:39:44;22.52;;;12.70;;
47531;SDS011;33273;52.254;7.988;2022-12-18T07:42:10;23.48;;;11.93;;
47531;SDS011;33273;52.254;7.988;2022-12-18T07:44:54;24.45;;;12.02;;
47531;SDS011;33273;52.254;7.988;2022-12-18T07:47:20;23.17;;;13.15;;
47531;SDS011;33273;52.254;7.988;2022-12-18T07:49:46;26.15;;;13.45;;
47531;SDS011;33273;52.254;7.988;2022-12-18T07:54:38;25.02;;;12.63;;
47531;SDS011;33273;52.254;7.988;2022-12-18T07:57:05;24.08;;;13.57;;
47531;SDS011;33273;52.254;7.988;2022-12-18T07:59:31;24.67;;;13.18;;
47531;SDS011;33273;52.254;7.988;2022-12-18T08:01:57;22.13;;;13.10;;
47531;SDS011;33273;52.254;7.988;2022-12-18T08:04:24;24.65;;;12.60;;
47531;SDS011;33273;52.254;7.988;2022-12-18T08:06:50;23.88;;;15.10;;
47531;SDS011;33273;52.254;7.988;2022-12-18T08:09:16;29.73;;;13.73;;
47531;SDS011;33273;52.254;7.988;2022-12-18T08:11:42;23.45;;;13.73;;
47531;SDS011;33273;52.254;7.988;2022-12-18T08:14:09;27.75;;;15.40;;
47531;SDS011;33273;52.254;7.988;2022-12-18T08:16:35;27.42;;;14.05;;
47531;SDS011;33273;52.254;7.988;2022-12-18T08:19:01;24.65;;;13.50;;
47531;SDS011;33273;52.254;7.988;2022-12-18T08:21:28;30.17;;;13.88;;
47531;SDS011;33273;52.254;7.988;2022-12-18T08:23:55;23.83;;;12.88;;
47531;SDS011;33273;52.254;7.988;2022-12-18T08:26:24;23.27;;;14.35;;
47531;SDS011;33273;52.254;7.988;2022-12-18T08:28:53;27.23;;;14.10;;
47531;SDS011;33273;52.254;7.988;2022-12-18T08:31:19;24.05;;;13.95;;
47531;SDS011;33273;52.254;7.988;2022-12-18T08:33:47;26.77;;;14.40;;
47531;SDS011;33273;52.254;7.988;2022-12-18T08:36:15;26.20;;;13.05;;
47531;SDS011;33273;52.254;7.988;2022-12-18T08:41:08;23.40;;;12.40;;
47531;SDS011;33273;52.254;7.988;2022-12-18T08:43:39;26.67;;;13.98;;
47531;SDS011;33273;52.254;7.988;2022-12-18T08:46:24;27.95;;;15.15;;
47531;SDS011;33273;52.254;7.988;2022-12-18T08:48:52;28.35;;;15.73;;
47531;SDS011;33273;52.254;7.988;2022-12-18T08:51:18;21.52;;;14.05;;
47531;SDS011;33273;52.254;7.988;2022-12-18T08:53:44;27.73;;;14.20;;
47531;SDS011;33273;52.254;7.988;2022-12-18T08:56:11;29.25;;;15.40;;
47531;SDS011;33273;52.254;7.988;2022-12-18T08:58:38;28.73;;;16.05;;
47531;SDS011;33273;52.254;7.988;2022-12-18T09:01:04;28.17;;;16.33;;
47531;SDS011;33273;52.254;7.988;2022-12-18T09:03:34;29.25;;;17.40;;
47531;SDS011;33273;52.254;7.988;2022-12-18T09:06:00;27.05;;;16.40;;
47531;SDS011;33273;52.254;7.988;2022-12-18T09:08:26;24.98;;;15.35;;
47531;SDS011;33273;52.254;7.988;2022-12-18T09:10:53;24.98;;;14.60;;
47531;SDS011;33273;52.254;7.988;2022-12-18T09:13:19;26.20;;;15.02;;
47531;SDS011;33273;52.254;7.988;2022-12-18T09:15:47;29.05;;;14.80;;
47531;SDS011;33273;52.254;7.988;2022-12-18T09:18:15;24.00;;;14.35;;
47531;SDS011;33273;52.254;7.988;2022-12-18T09:20:42;27.00;;;16.17;;
47531;SDS011;33273;52.254;7.988;2022-12-18T09:23:08;24.48;;;15.45;;
47531;SDS011;33273;52.254;7.988;2022-12-18T09:25:35;25.27;;;15.10;;
47531;SDS011;33273;52.254;7.988;2022-12-18T09:28:05;23.05;;;14.38;;
47531;SDS011;33273;52.254;7.988;2022-12-18T09:30:36;28.20;;;14.77;;
47531;SDS011;33273;52.254;7.988;2022-12-18T09:33:03;26.95;;;14.32;;
47531;SDS011;33273;52.254;7.988;2022-12-18T09:35:29;26.02;;;14.02;;
47531;SDS011;33273;52.254;7.988;2022-12-18T09:37:55;28.20;;;16.02;;
47531;SDS011;33273;52.254;7.988;2022-12-18T09:40:22;27.48;;;15.13;;
47531;SDS011;33273;52.254;7.988;2022-12-18T09:42:52;30.67;;;15.45;;
47531;SDS011;33273;52.254;7.988;2022-12-18T09:45:22;28.95;;;15.77;;
47531;SDS011;33273;52.254;7.988;2022-12-18T09:50:32;26.98;;;14.77;;
47531;SDS011;33273;52.254;7.988;2022-12-18T09:53:12;28.88;;;16.55;;
47531;SDS011;33273;52.254;7.988;2022-12-18T09:55:45;30.45;;;17.63;;
47531;SDS011;33273;52.254;7.988;2022-12-18T09:58:22;27.63;;;15.85;;
47531;SDS011;33273;52.254;7.988;2022-12-18T10:01:22;29.88;;;15.23;;
47531;SDS011;33273;52.254;7.988;2022-12-18T10:03:49;30.65;;;17.30;;
47531;SDS011;33273;52.254;7.988;2022-12-18T10:08:59;28.92;;;17.77;;
47531;SDS011;33273;52.254;7.988;2022-12-18T10:17:58;29.48;;;15.52;;
47531;SDS011;33273;52.254;7.988;2022-12-18T10:20:38;24.95;;;14.93;;
47531;SDS011;33273;52.254;7.988;2022-12-18T10:23:34;25.42;;;14.70;;
47531;SDS011;33273;52.254;7.988;2022-12-18T10:26:13;28.90;;;15.98;;
47531;SDS011;33273;52.254;7.988;2022-12-18T10:28:42;26.73;;;14.23;;
47531;SDS011;33273;52.254;7.988;2022-12-18T10:31:16;27.33;;;15.95;;
47531;SDS011;33273;52.254;7.988;2022-12-18T10:33:47;25.23;;;15.07;;
47531;SDS011;33273;52.254;7.988;2022-12-18T10:36:13;27.92;;;16.73;;
47531;SDS011;33273;52.254;7.988;2022-12-18T10:38:39;26.40;;;15.45;;
47531;SDS011;33273;52.254;7.988;2022-12-18T10:41:08;32.22;;;16.90;;
47531;SDS011;33273;52.254;7.988;2022-12-18T10:44:26;27.67;;;15.45;;
47531;SDS011;33273;52.254;7.988;2022-12-18T10:46:46;25.35;;;15.70;;
47531;SDS011;33273;52.254;7.988;2022-12-18T10:49:49;25.65;;;16.00;;
47531;SDS011;33273;52.254;7.988;2022-12-18T10:52:20;23.17;;;14.32;;
47531;SDS011;33273;52.254;7.988;2022-12-18T10:54:52;25.52;;;15.50;;
47531;SDS011;33273;52.254;7.988;2022-12-18T10:57:34;25.38;;;15.82;;
47531;SDS011;33273;52.254;7.988;2022-12-18T11:02:50;25.38;;;16.40;;
47531;SDS011;33273;52.254;7.988;2022-12-18T11:05:23;25.08;;;17.05;;
47531;SDS011;33273;52.254;7.988;2022-12-18T11:07:57;30.17;;;20.33;;
47531;SDS011;33273;52.254;7.988;2022-12-18T11:10:28;27.85;;;17.58;;
47531;SDS011;33273;52.254;7.988;2022-12-18T11:13:08;25.98;;;15.45;;
47531;SDS011;33273;52.254;7.988;2022-12-18T11:15:36;25.92;;;16.75;;
47531;SDS011;33273;52.254;7.988;2022-12-18T11:18:14;28.15;;;16.65;;
47531;SDS011;33273;52.254;7.988;2022-12-18T11:20:52;27.25;;;15.90;;
47531;SDS011;33273;52.254;7.988;2022-12-18T11:23:45;27.92;;;16.80;;
47531;SDS011;33273;52.254;7.988;2022-12-18T11:26:14;29.10;;;17.38;;
47531;SDS011;33273;52.254;7.988;2022-12-18T11:28:41;29.20;;;15.82;;
47531;SDS011;33273;52.254;7.988;2022-12-18T11:33:41;29.20;;;17.20;;
47531;SDS011;33273;52.254;7.988;2022-12-18T11:36:10;28.85;;;18.70;;
47531;SDS011;33273;52.254;7.988;2022-12-18T11:38:40;27.45;;;17.38;;
47531;SDS011;33273;52.254;7.988;2022-12-18T11:44:19;32.40;;;20.35;;
47531;SDS011;33273;52.254;7.988;2022-12-18T11:47:43;35.83;;;22.45;;
47531;SDS011;33273;52.254;7.988;2022-12-18T11:49:46;27.58;;;18.17;;
47531;SDS011;33273;52.254;7.988;2022-12-18T11:52:16;30.85;;;17.83;;
47531;SDS011;33273;52.254;7.988;2022-12-18T11:54:53;29.15;;;19.88;;
47531;SDS011;33273;52.254;7.988;2022-12-18T12:10:56;28.92;;;17.25;;
47531;SDS011;33273;52.254;7.988;2022-12-18T12:16:46;27.13;;;16.50;;
47531;SDS011;33273;52.254;7.988;2022-12-18T12:30:27;23.85;;;16.17;;
47531;SDS011;33273;52.254;7.988;2022-12-18T12:39:01;29.42;;;17.45;;
47531;SDS011;33273;52.254;7.988;2022-12-18T12:41:33;28.90;;;17.02;;
47531;SDS011;33273;52.254;7.988;2022-12-18T12:45:02;29.13;;;17.88;;
47531;SDS011;33273;52.254;7.988;2022-12-18T12:47:20;23.92;;;16.38;;
47531;SDS011;33273;52.254;7.988;2022-12-18T12:50:03;26.35;;;16.30;;
47531;SDS011;33273;52.254;7.988;2022-12-18T12:52:33;20.50;;;15.40;;
47531;SDS011;33273;52.254;7.988;2022-12-18T12:55:07;24.00;;;13.85;;
47531;SDS011;33273;52.254;7.988;2022-12-18T13:00:59;23.13;;;13.13;;
47531;SDS011;33273;52.254;7.988;2022-12-18T13:03:48;20.45;;;13.13;;
47531;SDS011;33273;52.254;7.988;2022-12-18T13:06:59;20.88;;;12.80;;
47531;SDS011;33273;52.254;7.988;2022-12-18T13:09:32;21.70;;;13.73;;
47531;SDS011;33273;52.254;7.988;2022-12-18T13:12:04;20.98;;;13.73;;
47531;SDS011;33273;52.254;7.988;2022-12-18T13:14:54;21.02;;;12.77;;
47531;SDS011;33273;52.254;7.988;2022-12-18T13:18:02;19.88;;;11.60;;
47531;SDS011;33273;52.254;7.988;2022-12-18T13:25:52;20.25;;;12.38;;
47531;SDS011;33273;52.254;7.988;2022-12-18T13:30:57;24.38;;;14.27;;
47531;SDS011;33273;52.254;7.988;2022-12-18T13:40:58;25.35;;;17.98;;
47531;SDS011;33273;52.254;7.988;2022-12-18T13:52:03;18.77;;;12.45;;
47531;SDS011;33273;52.254;7.988;2022-12-18T13:54:55;18.85;;;13.30;;
47531;SDS011;33273;52.254;7.988;2022-12-18T13:59:51;17.25;;;10.70;;
47531;SDS011;33273;52.254;7.988;2022-12-18T14:02:20;18.00;;;10.90;;
47531;SDS011;33273;52.254;7.988;2022-12-18T14:04:48;20.75;;;12.70;;
47531;SDS011;33273;52.254;7.988;2022-12-18T14:07:17;17.15;;;10.98;;
47531;SDS011;33273;52.254;7.988;2022-12-18T14:09:47;17.08;;;9.70;;
47531;SDS011;33273;52.254;7.988;2022-12-18T14:12:17;16.48;;;10.57;;
47531;SDS011;33273;52.254;7.988;2022-12-18T14:15:19;16.38;;;10.00;;
47531;SDS011;33273;52.254;7.988;2022-12-18T14:17:54;17.10;;;10.35;;
47531;SDS011;33273;52.254;7.988;2022-12-18T14:20:27;19.02;;;12.13;;
47531;SDS011;33273;52.254;7.988;2022-12-18T14:22:56;20.67;;;12.07;;
47531;SDS011;33273;52.254;7.988;2022-12-18T14:25:24;32.75;;;16.85;;
47531;SDS011;33273;52.254;7.988;2022-12-18T14:27:53;20.23;;;12.70;;
47531;SDS011;33273;52.254;7.988;2022-12-18T14:30:39;20.52;;;11.35;;
47531;SDS011;33273;52.254;7.988;2022-12-18T14:33:10;17.50;;;11.18;;
47531;SDS011;33273;52.254;7.988;2022-12-18T14:35:42;19.77;;;12.70;;
47531;SDS011;33273;52.254;7.988;2022-12-18T14:38:30;30.10;;;21.85;;
47531;SDS011;33273;52.254;7.988;2022-12-18T14:43:25;17.38;;;11.95;;
47531;SDS011;33273;52.254;7.988;2022-12-18T14:45:53;17.40;;;10.50;;
47531;SDS011;33273;52.254;7.988;2022-12-18T14:51:06;19.77;;;11.27;;
47531;SDS011;33273;52.254;7.988;2022-12-18T14:53:44;15.98;;;12.32;;
47531;SDS011;33273;52.254;7.988;2022-12-18T14:58:38;18.10;;;11.00;;
47531;SDS011;33273;52.254;7.988;2022-12-18T15:01:04;16.92;;;11.25;;
47531;SDS011;33273;52.254;7.988;2022-12-18T15:03:31;14.63;;;9.20;;
47531;SDS011;33273;52.254;7.988;2022-12-18T15:05:58;20.65;;;14.35;;
47531;SDS011;33273;52.254;7.988;2022-12-18T15:08:41;26.63;;;16.90;;
47531;SDS011;33273;52.254;7.988;2022-12-18T15:14:22;23.08;;;13.65;;
47531;SDS011;33273;52.254;7.988;2022-12-18T15:16:52;18.23;;;12.80;;
47531;SDS011;33273;52.254;7.988;2022-12-18T15:19:20;18.67;;;12.80;;
47531;SDS011;33273;52.254;7.988;2022-12-18T15:21:49;19.80;;;11.45;;
47531;SDS011;33273;52.254;7.988;2022-12-18T15:24:16;14.90;;;10.32;;
47531;SDS011;33273;52.254;7.988;2022-12-18T15:26:45;19.30;;;13.00;;
47531;SDS011;33273;52.254;7.988;2022-12-18T15:29:20;16.83;;;10.75;;
47531;SDS011;33273;52.254;7.988;2022-12-18T15:32:10;14.90;;;9.30;;
47531;SDS011;33273;52.254;7.988;2022-12-18T15:34:44;18.15;;;9.77;;
47531;SDS011;33273;52.254;7.988;2022-12-18T15:37:11;20.73;;;10.95;;
47531;SDS011;33273;52.254;7.988;2022-12-18T15:39:37;13.13;;;7.90;;
47531;SDS011;33273;52.254;7.988;2022-12-18T15:42:03;19.27;;;12.53;;
47531;SDS011;33273;52.254;7.988;2022-12-18T15:44:52;16.35;;;9.07;;
47531;SDS011;33273;52.254;7.988;2022-12-18T15:47:18;17.83;;;10.40;;
47531;SDS011;33273;52.254;7.988;2022-12-18T15:49:43;21.70;;;9.43;;
47531;SDS011;33273;52.254;7.988;2022-12-18T15:52:10;14.90;;;8.65;;
47531;SDS011;33273;52.254;7.988;2022-12-18T15:54:39;15.73;;;9.00;;
47531;SDS011;33273;52.254;7.988;2022-12-18T15:57:25;11.43;;;7.55;;
47531;SDS011;33273;52.254;7.988;2022-12-18T15:59:52;16.60;;;6.85;;
47531;SDS011;33273;52.254;7.988;2022-12-18T16:02:20;13.70;;;7.10;;
47531;SDS011;33273;52.254;7.988;2022-12-18T16:04:48;13.20;;;7.55;;
47531;SDS011;33273;52.254;7.988;2022-12-18T16:07:16;15.00;;;9.77;;
47531;SDS011;33273;52.254;7.988;2022-12-18T16:09:42;12.38;;;7.88;;
47531;SDS011;33273;52.254;7.988;2022-12-18T16:12:18;12.00;;;7.60;;
47531;SDS011;33273;52.254;7.988;2022-12-18T16:14:48;13.63;;;8.77;;
47531;SDS011;33273;52.254;7.988;2022-12-18T16:17:16;14.55;;;8.88;;
47531;SDS011;33273;52.254;7.988;2022-12-18T16:19:42;15.57;;;8.70;;
47531;SDS011;33273;52.254;7.988;2022-12-18T16:22:17;12.18;;;7.30;;
47531;SDS011;33273;52.254;7.988;2022-12-18T16:24:46;13.40;;;7.55;;
47531;SDS011;33273;52.254;7.988;2022-12-18T16:27:12;13.55;;;7.47;;
47531;SDS011;33273;52.254;7.988;2022-12-18T16:29:40;12.85;;;7.03;;
47531;SDS011;33273;52.254;7.988;2022-12-18T16:32:08;12.13;;;7.32;;
47531;SDS011;33273;52.254;7.988;2022-12-18T16:34:36;18.63;;;11.82;;
47531;SDS011;33273;52.254;7.988;2022-12-18T16:37:06;13.45;;;8.75;;
47531;SDS011;33273;52.254;7.988;2022-12-18T16:39:34;12.82;;;7.10;;
47531;SDS011;33273;52.254;7.988;2022-12-18T16:42:02;12.63;;;8.18;;
47531;SDS011;33273;52.254;7.988;2022-12-18T16:44:29;10.63;;;5.93;;
47531;SDS011;33273;52.254;7.988;2022-12-18T16:46:55;10.60;;;6.00;;
47531;SDS011;33273;52.254;7.988;2022-12-18T16:49:27;9.70;;;6.72;;
47531;SDS011;33273;52.254;7.988;2022-12-18T16:51:54;9.05;;;5.63;;
47531;SDS011;33273;52.254;7.988;2022-12-18T16:54:20;9.52;;;5.22;;
47531;SDS011;33273;52.254;7.988;2022-12-18T16:56:46;10.77;;;6.85;;
47531;SDS011;33273;52.254;7.988;2022-12-18T16:59:14;12.35;;;7.53;;